Time;durP1;ratioP1;P1;durP2;ratioP2;P2;SDS_P1;SDS_P2;PMS_P1;PMS_P2;Temp;Humidity;BMP_temperature;BMP_pressure;BME280_temperature;BME280_humidity;BME280_pressure;Samples;Min_cycle;Max_cycle;Signal;HPM_P1;HPM_P2
2023/01/21 00:00:34;;;;;;;39.43;22.00;;;-1.60;99.90;;;;;;5015580;28;20094;-81
2023/01/21 00:03:00;;;;;;;39.80;22.23;;;-1.60;99.90;;;;;;5033103;28;20084;-81
2023/01/21 00:05:25;;;;;;;39.50;22.90;;;-1.60;99.90;;;;;;5035399;28;20032;-81
2023/01/21 00:07:51;;;;;;;37.57;22.70;;;-1.60;99.90;;;;;;5035241;28;20448;-81
2023/01/21 00:10:17;;;;;;;38.63;21.40;;;-1.70;99.90;;;;;;5035553;28;20064;-81
2023/01/21 00:12:43;;;;;;;37.80;21.13;;;-1.70;99.90;;;;;;5017443;28;20128;-80
2023/01/21 00:15:09;;;;;;;37.93;22.57;;;-1.70;99.90;;;;;;5035453;28;20110;-81
2023/01/21 00:17:35;;;;;;;42.23;23.47;;;-1.70;99.90;;;;;;5035362;28;20022;-81
2023/01/21 00:20:04;;;;;;;39.47;24.00;;;-1.70;99.90;;;;;;5035096;28;20021;-80
2023/01/21 00:22:30;;;;;;;43.10;22.03;;;-1.70;99.90;;;;;;5035239;28;20040;-81
2023/01/21 00:24:56;;;;;;;42.83;24.20;;;-1.70;99.90;;;;;;5035019;28;20113;-81
2023/01/21 00:27:21;;;;;;;40.90;23.00;;;-1.70;99.90;;;;;;5035046;28;20047;-81
2023/01/21 00:29:47;;;;;;;41.47;23.37;;;-1.70;99.90;;;;;;5035239;28;20025;-81
2023/01/21 00:32:13;;;;;;;40.97;23.97;;;-1.70;99.90;;;;;;5016994;28;20035;-81
2023/01/21 00:34:39;;;;;;;41.57;22.93;;;-1.70;99.90;;;;;;5023097;28;20060;-81
2023/01/21 00:37:04;;;;;;;40.03;22.47;;;-1.70;99.90;;;;;;5029724;28;20030;-80
2023/01/21 00:39:30;;;;;;;34.90;20.77;;;-1.70;99.90;;;;;;5035216;28;20096;-80
2023/01/21 00:41:56;;;;;;;37.23;21.03;;;-1.70;99.90;;;;;;5032478;28;20118;-81
2023/01/21 00:44:21;;;;;;;36.50;21.77;;;-1.70;99.90;;;;;;5020946;28;20026;-81
2023/01/21 00:46:47;;;;;;;43.97;23.07;;;-1.70;99.90;;;;;;5035189;28;20528;-81
2023/01/21 00:49:12;;;;;;;40.23;22.10;;;-1.70;99.90;;;;;;5034582;28;20037;-81
2023/01/21 00:51:38;;;;;;;37.37;22.17;;;-1.70;99.90;;;;;;5016855;28;20029;-81
2023/01/21 00:54:03;;;;;;;37.07;21.47;;;-1.70;99.90;;;;;;5034777;28;20036;-81
2023/01/21 00:56:29;;;;;;;45.17;23.57;;;-1.70;99.90;;;;;;5017111;28;20371;-81
2023/01/21 00:58:54;;;;;;;41.07;22.17;;;-1.70;99.90;;;;;;5034458;28;20075;-81
2023/01/21 01:01:21;;;;;;;41.83;23.77;;;-1.80;99.90;;;;;;5016985;28;20408;-81
2023/01/21 01:03:48;;;;;;;39.83;21.17;;;-1.70;99.90;;;;;;5034232;28;20108;-81
2023/01/21 01:06:17;;;;;;;36.77;21.00;;;-1.70;99.90;;;;;;5034051;28;20037;-80
2023/01/21 01:08:44;;;;;;;35.17;20.87;;;-1.70;99.90;;;;;;5016400;28;20033;-80
2023/01/21 01:11:10;;;;;;;35.63;20.97;;;-1.70;99.90;;;;;;5022638;28;20414;-80
2023/01/21 01:13:36;;;;;;;36.03;22.13;;;-1.70;99.90;;;;;;5034311;28;20033;-80
2023/01/21 01:16:03;;;;;;;38.07;21.67;;;-1.80;99.90;;;;;;5034289;28;20534;-81
2023/01/21 01:18:31;;;;;;;36.93;22.07;;;-1.80;99.90;;;;;;5033946;28;20036;-81
2023/01/21 01:20:57;;;;;;;36.37;20.80;;;-1.80;99.90;;;;;;5034135;28;20034;-81
2023/01/21 01:23:23;;;;;;;36.90;21.73;;;-1.80;99.90;;;;;;5016153;28;20454;-80
2023/01/21 01:25:57;;;;;;;36.73;20.80;;;-1.80;99.90;;;;;;5033865;28;20079;-81
2023/01/21 01:28:22;;;;;;;38.70;20.83;;;-1.80;99.90;;;;;;5034023;28;20033;-81
2023/01/21 01:30:48;;;;;;;34.20;19.93;;;-1.80;99.90;;;;;;5033689;28;20462;-81
2023/01/21 01:33:13;;;;;;;39.30;22.07;;;-1.80;99.90;;;;;;5015899;28;20450;-81
2023/01/21 01:35:40;;;;;;;36.93;21.40;;;-1.80;99.90;;;;;;5034069;28;20455;-80
2023/01/21 01:38:08;;;;;;;40.80;21.13;;;-1.80;99.90;;;;;;5033678;28;20049;-81
2023/01/21 01:40:34;;;;;;;36.77;20.63;;;-1.90;99.90;;;;;;5033775;28;20042;-81
2023/01/21 01:43:00;;;;;;;35.93;20.93;;;-1.90;99.90;;;;;;5015813;28;20047;-81
2023/01/21 01:45:25;;;;;;;36.30;20.57;;;-1.90;99.90;;;;;;5033240;28;20021;-81
2023/01/21 01:47:58;;;;;;;35.80;21.37;;;-1.90;99.90;;;;;;5033042;28;20489;-80
2023/01/21 01:50:31;;;;;;;40.17;21.90;;;-1.90;99.90;;;;;;5034172;28;20447;-80
2023/01/21 01:52:59;;;;;;;40.43;21.43;;;-1.90;99.90;;;;;;5035131;28;20092;-81
2023/01/21 01:55:30;;;;;;;34.83;19.77;;;-1.90;99.90;;;;;;5016654;28;20053;-80
2023/01/21 01:57:57;;;;;;;37.40;21.73;;;-1.90;99.90;;;;;;5033565;28;20017;-80
2023/01/21 02:00:24;;;;;;;39.40;22.17;;;-1.90;99.90;;;;;;5028661;28;20034;-89
2023/01/21 02:05:54;;;;;;;36.83;19.87;;;-1.90;99.90;;;;;;4946699;29;20082;-88
2023/01/21 02:08:20;;;;;;;37.60;21.10;;;-2.00;99.90;;;;;;5012198;28;20034;-88
2023/01/21 02:10:46;;;;;;;38.80;21.07;;;-2.00;99.90;;;;;;5023782;28;20038;-88
2023/01/21 02:13:12;;;;;;;37.60;22.43;;;-2.00;99.90;;;;;;5010590;28;20087;-88
2023/01/21 02:15:59;;;;;;;34.97;22.63;;;-2.00;99.90;;;;;;5026313;28;20056;-88
2023/01/21 02:18:44;;;;;;;38.77;21.33;;;-2.00;99.90;;;;;;5026505;28;20151;-88
2023/01/21 02:21:35;;;;;;;38.10;21.88;;;-2.00;99.90;;;;;;5027819;28;20048;-88
2023/01/21 02:24:22;;;;;;;37.20;20.93;;;-2.00;99.90;;;;;;5026199;28;20021;-88
2023/01/21 02:27:16;;;;;;;38.30;22.43;;;-2.00;99.90;;;;;;5004723;28;20380;-87
2023/01/21 02:30:08;;;;;;;39.43;22.90;;;-2.00;99.90;;;;;;5025298;28;20048;-88
2023/01/21 02:33:08;;;;;;;43.77;23.80;;;-2.10;99.90;;;;;;5013331;28;20021;-83
2023/01/21 02:35:39;;;;;;;36.77;22.03;;;-2.10;99.90;;;;;;5033572;28;20053;-83
2023/01/21 02:38:23;;;;;;;38.60;22.57;;;-2.10;99.90;;;;;;5014979;28;20025;-83
2023/01/21 02:41:09;;;;;;;37.53;22.53;;;-2.10;99.90;;;;;;5032729;28;20505;-83
2023/01/21 02:43:55;;;;;;;;;;;-2.10;99.90;;;;;;5015473;28;20021;-83
2023/01/21 02:46:38;;;;;;;37.47;20.80;;;-2.10;99.90;;;;;;5032047;28;19905;-83
2023/01/21 02:49:24;;;;;;;38.70;22.13;;;-2.10;99.90;;;;;;5032833;28;20029;-83
2023/01/21 02:51:49;;;;;;;36.72;22.48;;;-2.20;99.90;;;;;;5032928;28;20022;-83
2023/01/21 02:54:38;;;;;;;36.67;22.17;;;-2.20;99.90;;;;;;5032877;28;20509;-83
2023/01/21 02:57:16;;;;;;;36.93;22.80;;;-2.20;99.90;;;;;;5015092;28;20120;-83
2023/01/21 02:59:46;;;;;;;38.43;22.27;;;-2.20;99.90;;;;;;5036850;28;20022;-82
2023/01/21 03:02:47;;;;;;;42.33;23.33;;;-2.20;99.90;;;;;;5037024;28;20488;-83
2023/01/21 03:05:36;;;;;;;43.23;23.13;;;-2.20;99.90;;;;;;4973355;28;20164;-83
2023/01/21 03:08:10;;;;;;;41.83;23.20;;;-2.20;99.90;;;;;;5016953;28;20029;-83
2023/01/21 03:11:14;;;;;;;26.92;17.08;;;-2.20;99.90;;;;;;4998990;28;20018;-83
2023/01/21 03:16:58;;;;;;;42.42;23.17;;;-2.20;99.90;;;;;;5016696;28;20438;-83
2023/01/21 03:19:47;;;;;;;42.77;22.83;;;-2.20;99.90;;;;;;5016685;28;20025;-83
2023/01/21 03:22:18;;;;;;;42.97;23.00;;;-2.20;99.90;;;;;;4998619;28;20026;-83
2023/01/21 03:24:49;;;;;;;41.77;22.47;;;-2.20;99.90;;;;;;4998600;28;20528;-82
2023/01/21 03:27:18;;;;;;;43.27;23.70;;;-2.20;99.90;;;;;;5016550;28;20041;-83
2023/01/21 03:29:49;;;;;;;45.00;24.10;;;-2.20;99.90;;;;;;5016669;28;20022;-83
2023/01/21 03:32:17;;;;;;;40.80;23.33;;;-2.20;99.90;;;;;;5016283;28;20033;-83
2023/01/21 03:34:48;;;;;;;43.70;24.10;;;-2.20;99.90;;;;;;5016666;28;20117;-83
2023/01/21 03:37:21;;;;;;;44.37;23.97;;;-2.20;99.90;;;;;;4998400;28;20415;-82
2023/01/21 03:40:11;;;;;;;45.43;24.97;;;-2.20;99.90;;;;;;5015868;28;20461;-83
2023/01/21 03:42:37;;;;;;;43.40;22.90;;;-2.20;99.90;;;;;;4998239;28;20026;-82
2023/01/21 03:45:03;;;;;;;45.77;24.23;;;-2.20;99.90;;;;;;5015939;28;20055;-82
2023/01/21 03:47:36;;;;;;;45.07;25.80;;;-2.20;99.90;;;;;;5016074;28;20025;-82
2023/01/21 03:50:26;;;;;;;45.23;25.27;;;-2.20;99.90;;;;;;5015832;28;20026;-82
2023/01/21 03:52:51;;;;;;;44.77;24.57;;;-2.30;99.90;;;;;;5015840;28;20033;-82
2023/01/21 03:55:17;;;;;;;46.17;24.77;;;-2.30;99.90;;;;;;5016085;28;20029;-82
2023/01/21 03:57:43;;;;;;;46.30;25.00;;;-2.20;99.90;;;;;;5015696;28;20034;-82
2023/01/21 04:00:09;;;;;;;45.60;25.23;;;-2.20;99.90;;;;;;5015661;28;20088;-83
2023/01/21 04:02:35;;;;;;;48.50;25.10;;;-2.20;99.90;;;;;;5015533;28;20033;-82
2023/01/21 04:05:01;;;;;;;48.57;24.43;;;-2.20;99.90;;;;;;5015912;28;20018;-83
2023/01/21 04:07:26;;;;;;;42.50;23.83;;;-2.20;99.90;;;;;;5015808;28;20033;-83
2023/01/21 04:09:52;;;;;;;47.53;26.43;;;-2.20;99.90;;;;;;5014569;28;20079;-83
2023/01/21 04:12:17;;;;;;;44.53;25.37;;;-2.20;99.90;;;;;;5015606;28;20030;-82
2023/01/21 04:14:43;;;;;;;46.00;25.20;;;-2.30;99.90;;;;;;5015671;28;20065;-82
2023/01/21 04:17:08;;;;;;;44.43;24.20;;;-2.30;99.90;;;;;;5015452;28;20435;-82
2023/01/21 04:19:34;;;;;;;42.97;24.53;;;-2.30;99.90;;;;;;5015622;28;20417;-82
2023/01/21 04:22:00;;;;;;;46.00;25.43;;;-2.20;99.90;;;;;;5015236;28;20550;-82
2023/01/21 04:24:25;;;;;;;45.87;25.17;;;-2.30;99.90;;;;;;5015235;28;20482;-83
2023/01/21 04:26:51;;;;;;;46.80;25.73;;;-2.20;99.90;;;;;;5015318;28;20426;-82
2023/01/21 04:29:17;;;;;;;41.67;24.63;;;-2.30;99.90;;;;;;5015540;28;20419;-82
2023/01/21 04:31:42;;;;;;;43.03;24.13;;;-2.30;99.90;;;;;;5015283;28;20471;-83
2023/01/21 04:34:08;;;;;;;48.40;25.00;;;-2.30;99.90;;;;;;5015276;28;20426;-82
2023/01/21 04:36:33;;;;;;;48.43;24.53;;;-2.30;99.90;;;;;;4997556;28;20038;-83
2023/01/21 04:38:59;;;;;;;42.20;24.43;;;-2.30;99.90;;;;;;5015348;28;20030;-83
2023/01/21 04:41:24;;;;;;;46.50;25.60;;;-2.30;99.90;;;;;;5014882;28;20104;-83
2023/01/21 04:43:50;;;;;;;47.53;25.73;;;-2.30;99.90;;;;;;5014988;28;20030;-82
2023/01/21 04:46:16;;;;;;;43.30;24.23;;;-2.30;99.90;;;;;;5014997;28;20043;-82
2023/01/21 04:48:41;;;;;;;48.60;25.73;;;-2.30;99.90;;;;;;5014922;28;20101;-83
2023/01/21 04:51:07;;;;;;;45.17;25.40;;;-2.30;99.90;;;;;;4997332;28;20090;-82
2023/01/21 04:53:32;;;;;;;50.53;23.07;;;-2.30;99.90;;;;;;5015156;28;20069;-82
2023/01/21 04:55:58;;;;;;;42.80;24.27;;;-2.30;99.90;;;;;;5014967;28;20040;-82
2023/01/21 04:58:23;;;;;;;45.23;23.93;;;-2.30;99.90;;;;;;5014749;28;20029;-83
2023/01/21 05:00:49;;;;;;;47.30;24.87;;;-2.30;99.90;;;;;;5014837;28;20117;-82
2023/01/21 05:03:15;;;;;;;44.33;24.70;;;-2.30;99.90;;;;;;5014720;28;20037;-82
2023/01/21 05:05:40;;;;;;;48.17;24.70;;;-2.30;99.90;;;;;;4996954;28;20037;-82
2023/01/21 05:08:06;;;;;;;45.87;24.40;;;-2.30;99.90;;;;;;5014495;28;20034;-82
2023/01/21 05:10:32;;;;;;;47.57;25.27;;;-2.30;99.90;;;;;;4998225;28;20356;-82
2023/01/21 05:12:58;;;;;;;47.97;27.00;;;-2.30;99.90;;;;;;5015198;28;20459;-81
2023/01/21 05:15:23;;;;;;;44.47;24.50;;;-2.30;99.90;;;;;;4996967;28;20029;-81
2023/01/21 05:17:49;;;;;;;48.03;25.77;;;-2.30;99.90;;;;;;5014423;28;20029;-81
2023/01/21 05:20:15;;;;;;;48.37;25.37;;;-2.40;99.90;;;;;;5014808;28;20032;-81
2023/01/21 05:22:40;;;;;;;51.00;25.60;;;-2.40;99.90;;;;;;5022512;28;20127;-81
2023/01/21 05:25:06;;;;;;;53.13;26.07;;;-2.40;99.90;;;;;;5033657;28;20088;-81
2023/01/21 05:27:33;;;;;;;47.17;25.63;;;-2.40;99.90;;;;;;5034789;28;20037;-81
2023/01/21 05:29:59;;;;;;;45.03;23.97;;;-2.40;99.90;;;;;;5034211;28;20025;-81
2023/01/21 05:32:24;;;;;;;45.67;25.30;;;-2.40;99.90;;;;;;5034332;28;20083;-81
2023/01/21 05:34:50;;;;;;;47.17;25.73;;;-2.40;99.90;;;;;;5034152;28;20034;-82
2023/01/21 05:37:15;;;;;;;47.90;25.03;;;-2.40;99.90;;;;;;5033807;28;20458;-81
2023/01/21 05:39:41;;;;;;;46.23;23.87;;;-2.50;99.90;;;;;;5033792;28;20378;-81
2023/01/21 05:42:06;;;;;;;46.50;25.03;;;-2.50;99.90;;;;;;5016594;28;20036;-81
2023/01/21 05:44:32;;;;;;;45.27;24.87;;;-2.50;99.90;;;;;;5033896;28;20128;-81
2023/01/21 05:46:57;;;;;;;41.23;23.80;;;-2.50;99.90;;;;;;5033892;28;20034;-82
2023/01/21 05:49:23;;;;;;;47.63;25.60;;;-2.50;99.90;;;;;;5033874;28;20056;-82
2023/01/21 05:51:48;;;;;;;45.63;24.83;;;-2.40;99.90;;;;;;5033734;28;20037;-82
2023/01/21 05:54:14;;;;;;;46.13;24.60;;;-2.50;99.90;;;;;;5033657;28;20356;-82
2023/01/21 05:56:40;;;;;;;46.47;23.87;;;-2.50;99.90;;;;;;5033624;28;20092;-82
2023/01/21 05:59:06;;;;;;;43.57;23.90;;;-2.50;99.90;;;;;;5033340;28;20029;-82
2023/01/21 06:01:32;;;;;;;42.73;23.77;;;-2.50;99.90;;;;;;5015545;28;20029;-82
2023/01/21 06:03:57;;;;;;;43.40;22.60;;;-2.50;99.90;;;;;;5033824;28;20049;-81
2023/01/21 06:06:23;;;;;;;39.90;21.67;;;-2.50;99.90;;;;;;5033261;28;20025;-82
2023/01/21 06:08:48;;;;;;;43.53;22.43;;;-2.60;99.90;;;;;;5026384;28;20018;-82
2023/01/21 06:11:14;;;;;;;42.53;22.07;;;-2.60;99.90;;;;;;4996647;28;20054;-82
2023/01/21 06:13:39;;;;;;;39.13;22.00;;;-2.60;99.90;;;;;;5013497;28;20455;-82
2023/01/21 06:16:05;;;;;;;39.97;21.87;;;-2.60;99.90;;;;;;5013747;28;20037;-82
2023/01/21 06:18:30;;;;;;;41.70;22.13;;;-2.60;99.90;;;;;;4995873;28;20037;-82
2023/01/21 06:20:59;;;;;;;42.50;21.57;;;-2.60;99.90;;;;;;4995763;28;20034;-82
2023/01/21 06:23:25;;;;;;;41.90;20.80;;;-2.70;99.90;;;;;;5013808;28;20030;-82
2023/01/21 06:25:51;;;;;;;34.60;20.07;;;-2.70;99.90;;;;;;5013670;28;20105;-82
2023/01/21 06:28:16;;;;;;;36.80;21.33;;;-2.70;99.90;;;;;;5014068;28;20105;-82
2023/01/21 06:30:42;;;;;;;40.27;21.87;;;-2.80;99.90;;;;;;5032993;28;20034;-82
2023/01/21 06:33:08;;;;;;;44.83;22.33;;;-2.80;99.90;;;;;;5032620;28;20411;-82
2023/01/21 06:35:35;;;;;;;40.50;22.30;;;-2.80;99.90;;;;;;5032853;28;20029;-82
2023/01/21 06:38:01;;;;;;;44.63;22.60;;;-2.90;99.90;;;;;;5033378;28;20037;-82
2023/01/21 06:40:27;;;;;;;43.67;22.77;;;-2.90;99.90;;;;;;5032703;28;20061;-82
2023/01/21 06:42:53;;;;;;;43.43;22.03;;;-2.90;99.90;;;;;;5033012;28;20033;-82
2023/01/21 06:45:18;;;;;;;41.23;22.33;;;-2.90;99.90;;;;;;5033316;28;20459;-82
2023/01/21 06:47:45;;;;;;;41.07;21.73;;;-3.00;99.90;;;;;;5032841;28;20048;-80
2023/01/21 06:50:16;;;;;;;36.80;21.03;;;-2.90;99.90;;;;;;5015032;28;20030;-80
2023/01/21 06:52:42;;;;;;;40.83;21.90;;;-3.00;99.90;;;;;;5032665;28;20025;-80
2023/01/21 06:55:09;;;;;;;36.87;19.67;;;-3.00;99.90;;;;;;5013863;28;20049;-80
2023/01/21 06:57:34;;;;;;;39.33;20.93;;;-3.00;99.90;;;;;;5032933;28;20037;-80
2023/01/21 07:00:00;;;;;;;41.53;21.33;;;-3.00;99.90;;;;;;5032920;28;20036;-80
2023/01/21 07:02:26;;;;;;;40.53;22.27;;;-3.00;99.90;;;;;;5033056;28;20033;-80
2023/01/21 07:04:52;;;;;;;41.50;20.53;;;-3.10;99.90;;;;;;5032871;28;20385;-80
2023/01/21 07:07:17;;;;;;;40.70;21.67;;;-3.10;99.90;;;;;;5014863;28;20100;-80
2023/01/21 07:09:43;;;;;;;37.57;20.37;;;-3.10;99.90;;;;;;5033168;28;20025;-81
2023/01/21 07:12:09;;;;;;;40.27;21.57;;;-3.20;99.90;;;;;;5032508;28;20061;-81
2023/01/21 07:14:34;;;;;;;41.80;21.30;;;-3.20;99.90;;;;;;5033071;28;20442;-80
2023/01/21 07:17:00;;;;;;;37.80;21.33;;;-3.30;99.90;;;;;;5017779;28;20087;-80
2023/01/21 07:19:26;;;;;;;45.73;24.80;;;-3.30;99.90;;;;;;5034476;28;20026;-80
2023/01/21 07:21:53;;;;;;;44.00;22.03;;;-3.30;99.90;;;;;;5014704;28;20115;-80
2023/01/21 07:24:21;;;;;;;41.20;22.33;;;-3.30;99.90;;;;;;5032592;28;20017;-80
2023/01/21 07:26:49;;;;;;;40.00;21.20;;;-3.30;99.90;;;;;;5014629;28;20029;-81
2023/01/21 07:29:14;;;;;;;41.17;21.40;;;-3.30;99.90;;;;;;5032885;28;20034;-80
2023/01/21 07:31:40;;;;;;;41.03;21.30;;;-3.30;99.90;;;;;;5014812;28;20033;-80
2023/01/21 07:34:05;;;;;;;37.43;20.90;;;-3.30;99.90;;;;;;5014126;28;20052;-80
2023/01/21 07:36:31;;;;;;;41.50;21.83;;;-3.40;99.90;;;;;;5014958;28;20099;-80
2023/01/21 07:38:57;;;;;;;42.37;23.63;;;-3.40;99.90;;;;;;5014632;28;20026;-80
2023/01/21 07:41:22;;;;;;;47.97;23.33;;;-3.30;99.90;;;;;;5032315;28;20045;-80
2023/01/21 07:43:49;;;;;;;38.93;22.80;;;-3.30;99.90;;;;;;5032596;28;20026;-80
2023/01/21 07:46:19;;;;;;;43.23;22.37;;;-3.20;99.90;;;;;;5017993;28;20041;-81
2023/01/21 07:48:49;;;;;;;39.50;21.53;;;-3.20;99.90;;;;;;5035829;28;20083;-81
2023/01/21 07:51:19;;;;;;;39.33;21.93;;;-3.20;99.90;;;;;;5035751;28;20033;-81
2023/01/21 07:53:44;;;;;;;43.70;23.17;;;-3.10;99.90;;;;;;5036021;28;20065;-80
2023/01/21 07:56:10;;;;;;;40.07;21.73;;;-3.10;99.90;;;;;;5035913;28;20049;-81
2023/01/21 07:58:36;;;;;;;41.67;22.23;;;-3.00;99.90;;;;;;5035847;28;20029;-81
2023/01/21 08:01:09;;;;;;;33.60;18.97;;;-3.00;99.90;;;;;;5035878;28;20037;-81
2023/01/21 08:03:36;;;;;;;39.43;22.00;;;-2.90;99.90;;;;;;5035545;28;20025;-81
2023/01/21 08:06:02;;;;;;;39.27;21.27;;;-2.90;99.90;;;;;;5035342;28;20013;-81
2023/01/21 08:08:27;;;;;;;41.73;21.93;;;-2.80;99.90;;;;;;5035564;28;20033;-80
2023/01/21 08:10:54;;;;;;;39.70;22.37;;;-2.80;99.90;;;;;;5035631;28;20025;-81
2023/01/21 08:13:21;;;;;;;39.83;20.73;;;-2.80;99.90;;;;;;5035381;28;20021;-81
2023/01/21 08:15:51;;;;;;;37.47;22.03;;;-2.70;99.90;;;;;;5035336;28;20025;-81
2023/01/21 08:18:17;;;;;;;38.20;22.17;;;-2.80;99.90;;;;;;5008147;28;20021;-81
2023/01/21 08:20:43;;;;;;;37.50;21.67;;;-2.70;99.90;;;;;;5035131;28;20044;-81
2023/01/21 08:23:09;;;;;;;39.20;22.03;;;-2.70;99.90;;;;;;5035224;28;20037;-80
2023/01/21 08:25:34;;;;;;;43.03;22.27;;;-2.60;99.90;;;;;;5035611;28;20061;-81
2023/01/21 08:28:00;;;;;;;41.53;21.77;;;-2.50;99.90;;;;;;5017372;28;20030;-81
2023/01/21 08:30:26;;;;;;;42.63;22.03;;;-2.50;99.90;;;;;;5034946;28;20032;-81
2023/01/21 08:32:51;;;;;;;41.27;23.10;;;-2.50;99.90;;;;;;5017365;28;20060;-81
2023/01/21 08:35:17;;;;;;;40.83;21.70;;;-2.50;99.90;;;;;;5026945;28;20039;-81
2023/01/21 08:37:43;;;;;;;46.47;23.00;;;-2.50;99.90;;;;;;5035282;28;20104;-81
2023/01/21 08:40:10;;;;;;;43.73;21.60;;;-2.50;99.90;;;;;;5035174;28;20045;-81
2023/01/21 08:42:36;;;;;;;45.37;22.97;;;-2.50;99.90;;;;;;5035053;28;20034;-81
2023/01/21 08:45:02;;;;;;;38.03;21.03;;;-2.40;99.90;;;;;;5034790;28;20425;-81
2023/01/21 08:47:27;;;;;;;41.67;21.50;;;-2.40;99.90;;;;;;5034857;28;20021;-81
2023/01/21 08:49:53;;;;;;;37.60;21.00;;;-2.30;99.90;;;;;;5017882;28;20021;-81
2023/01/21 08:52:20;;;;;;;39.77;21.83;;;-2.30;99.90;;;;;;5035143;28;20080;-81
2023/01/21 08:54:45;;;;;;;43.30;22.07;;;-2.30;99.90;;;;;;5016842;28;20333;-81
2023/01/21 08:57:11;;;;;;;42.00;21.47;;;-2.20;99.90;;;;;;5034952;28;20104;-81
2023/01/21 08:59:37;;;;;;;44.97;22.30;;;-2.20;99.90;;;;;;5034874;28;20036;-81
2023/01/21 09:02:03;;;;;;;36.57;20.77;;;-2.20;99.90;;;;;;5034694;28;20057;-80
2023/01/21 09:04:28;;;;;;;42.67;23.00;;;-2.10;99.90;;;;;;5034753;28;20072;-81
2023/01/21 09:06:54;;;;;;;40.27;21.17;;;-2.10;99.90;;;;;;5034259;28;20029;-81
2023/01/21 09:09:19;;;;;;;41.17;22.20;;;-2.00;99.90;;;;;;5034441;28;20029;-81
2023/01/21 09:11:45;;;;;;;39.53;20.60;;;-2.00;99.90;;;;;;5034507;28;20026;-81
2023/01/21 09:14:11;;;;;;;39.40;20.80;;;-2.00;99.90;;;;;;5034693;28;20061;-81
2023/01/21 09:16:36;;;;;;;41.20;21.43;;;-2.00;99.90;;;;;;5034199;28;20072;-81
2023/01/21 09:19:02;;;;;;;41.80;21.57;;;-2.00;99.90;;;;;;5034514;28;20045;-81
2023/01/21 09:21:28;;;;;;;41.93;21.67;;;-2.00;99.90;;;;;;5033982;28;20030;-80
2023/01/21 09:23:55;;;;;;;39.00;21.40;;;-2.00;99.90;;;;;;5034604;28;20021;-81
2023/01/21 09:26:22;;;;;;;35.40;20.33;;;-1.90;99.90;;;;;;5016573;28;20442;-81
2023/01/21 09:28:58;;;;;;;42.40;21.47;;;-1.80;99.90;;;;;;5034127;28;20025;-81
2023/01/21 09:31:25;;;;;;;36.33;19.87;;;-1.70;99.90;;;;;;5033863;28;20045;-81
2023/01/21 09:33:57;;;;;;;42.57;20.30;;;-1.70;99.90;;;;;;5032792;28;20422;-78
2023/01/21 09:36:25;;;;;;;36.07;20.87;;;-1.70;99.90;;;;;;5026318;28;20104;-78
2023/01/21 09:38:51;;;;;;;35.77;18.33;;;-1.60;99.90;;;;;;5033520;28;20041;-78
2023/01/21 09:41:22;;;;;;;35.10;19.60;;;-1.50;99.90;;;;;;5033395;28;20045;-86
2023/01/21 09:44:20;;;;;;;33.93;19.40;;;-1.40;99.90;;;;;;5033723;28;20026;-81
2023/01/21 09:47:07;;;;;;;33.53;17.67;;;-1.40;99.90;;;;;;5021952;28;20064;-80
2023/01/21 09:49:41;;;;;;;37.97;19.43;;;-1.40;99.90;;;;;;5015900;28;20032;-80
2023/01/21 09:52:28;;;;;;;35.97;20.03;;;-1.30;99.90;;;;;;5033808;28;20049;-80
2023/01/21 09:55:00;;;;;;;35.63;18.83;;;-1.30;99.90;;;;;;5014443;28;20026;-80
2023/01/21 09:57:54;;;;;;;38.80;19.07;;;-1.20;99.90;;;;;;5014233;28;20068;-80
2023/01/21 10:00:46;;;;;;;37.30;19.10;;;-1.20;99.90;;;;;;4968430;28;20127;-80
2023/01/21 10:03:26;;;;;;;33.47;19.03;;;-1.10;99.90;;;;;;5024901;28;20025;-79
2023/01/21 10:05:57;;;;;;;36.40;18.47;;;-1.10;99.90;;;;;;5033391;28;20025;-83
2023/01/21 10:08:49;;;;;;;34.87;18.70;;;-1.10;99.90;;;;;;5032726;28;20104;-78
2023/01/21 10:11:55;;;;;;;33.87;19.60;;;-1.00;99.90;;;;;;5033551;28;20029;-78
2023/01/21 10:14:32;;;;;;;27.20;14.70;;;-1.10;99.90;;;;;;5016419;28;20060;-78
2023/01/21 10:17:13;;;;;;;37.23;19.20;;;-1.00;99.90;;;;;;5033567;28;20166;-78
2023/01/21 10:19:44;;;;;;;35.53;18.27;;;-0.90;99.90;;;;;;5028943;28;20029;-75
2023/01/21 10:22:30;;;;;;;37.07;18.83;;;-0.90;99.90;;;;;;5028219;28;20069;-74
2023/01/21 10:25:22;;;;;;;33.33;19.67;;;-0.90;99.90;;;;;;5029313;28;20037;-74
2023/01/21 10:27:47;;;;;;;32.73;17.40;;;-0.90;99.90;;;;;;5028903;28;20030;-74
2023/01/21 10:30:27;;;;;;;34.07;18.80;;;-0.90;99.90;;;;;;5030532;28;20105;-75
2023/01/21 10:32:54;;;;;;;33.50;18.13;;;-0.90;99.90;;;;;;5028279;28;20021;-74
2023/01/21 10:35:44;;;;;;;32.13;17.93;;;-0.90;99.90;;;;;;5026911;28;20026;-75
2023/01/21 10:38:22;;;;;;;32.27;17.60;;;-0.90;99.90;;;;;;5029757;28;20046;-75
2023/01/21 10:41:00;;;;;;;32.67;17.50;;;-0.90;99.90;;;;;;5029578;28;20049;-74
2023/01/21 10:43:31;;;;;;;29.97;17.37;;;-1.00;99.90;;;;;;5030726;28;20032;-75
2023/01/21 10:46:15;;;;;;;36.87;20.83;;;-1.00;99.90;;;;;;5030634;28;20022;-77
2023/01/21 10:48:51;;;;;;;34.97;19.37;;;-1.00;99.90;;;;;;5012086;28;20476;-74
2023/01/21 10:51:32;;;;;;;32.77;17.07;;;-1.00;99.90;;;;;;5030690;28;20021;-75
2023/01/21 10:54:19;;;;;;;31.07;17.57;;;-1.00;99.90;;;;;;5027684;28;20028;-74
2023/01/21 10:56:48;;;;;;;30.63;17.53;;;-1.10;99.90;;;;;;5026311;28;20026;-74
2023/01/21 10:59:19;;;;;;;30.30;16.57;;;-1.10;99.90;;;;;;5030003;28;20028;-74
2023/01/21 11:01:49;;;;;;;39.30;19.43;;;-1.10;99.90;;;;;;5030285;28;20075;-74
2023/01/21 11:04:18;;;;;;;34.23;18.83;;;-1.10;99.90;;;;;;5027105;28;20017;-74
2023/01/21 11:06:48;;;;;;;32.93;17.60;;;-1.10;99.90;;;;;;5025612;28;20067;-74
2023/01/21 11:09:14;;;;;;;32.63;17.90;;;-1.10;99.90;;;;;;5027928;28;20018;-74
2023/01/21 11:11:41;;;;;;;32.23;17.07;;;-1.10;99.90;;;;;;5024582;28;20041;-74
2023/01/21 11:14:07;;;;;;;35.40;17.33;;;-1.00;99.90;;;;;;5026985;28;20044;-74
2023/01/21 11:16:36;;;;;;;35.93;18.40;;;-1.00;99.90;;;;;;5025046;28;20025;-73
2023/01/21 11:19:05;;;;;;;29.80;17.00;;;-1.00;99.90;;;;;;5028821;28;20082;-73
2023/01/21 11:21:31;;;;;;;33.43;16.90;;;-0.90;99.90;;;;;;5029983;28;20025;-74
2023/01/21 11:24:03;;;;;;;30.37;16.43;;;-0.90;99.90;;;;;;5030097;28;20414;-74
2023/01/21 11:26:34;;;;;;;30.07;17.47;;;-0.90;99.90;;;;;;5032975;28;20018;-75
2023/01/21 11:29:18;;;;;;;32.67;17.50;;;-0.80;99.90;;;;;;5029670;28;20536;-74
2023/01/21 11:31:49;;;;;;;33.07;17.67;;;-0.80;99.90;;;;;;5011208;28;20383;-73
2023/01/21 11:34:21;;;;;;;46.57;20.80;;;-0.80;99.90;;;;;;5028131;28;20525;-70
2023/01/21 11:36:59;;;;;;;47.13;25.53;;;-0.80;99.90;;;;;;5028671;28;20070;-73
2023/01/21 11:39:27;;;;;;;48.30;24.83;;;-0.70;99.90;;;;;;5031623;28;20472;-73
2023/01/21 11:42:01;;;;;;;37.87;21.60;;;-0.80;99.90;;;;;;5029540;28;20097;-73
2023/01/21 11:44:27;;;;;;;39.60;21.67;;;-0.80;99.90;;;;;;5010062;28;20041;-74
2023/01/21 11:46:53;;;;;;;50.13;25.77;;;-0.80;99.90;;;;;;5028875;28;20211;-73
2023/01/21 11:49:23;;;;;;;49.43;25.97;;;-0.70;99.90;;;;;;5027525;28;20135;-74
2023/01/21 11:52:03;;;;;;;55.87;30.83;;;-0.70;99.90;;;;;;5032286;28;20092;-77
2023/01/21 11:54:38;;;;;;;39.87;23.17;;;-0.70;99.90;;;;;;5035678;28;20112;-78
2023/01/21 11:57:04;;;;;;;47.65;25.52;;;-0.70;99.90;;;;;;5035417;28;20029;-78
2023/01/21 11:59:37;;;;;;;57.33;30.57;;;-0.70;99.90;;;;;;5035740;28;20536;-77
2023/01/21 12:02:25;;;;;;;71.80;36.13;;;-0.70;99.90;;;;;;5035697;28;20018;-77
2023/01/21 12:05:25;;;;;;;32.33;18.37;;;-0.60;99.90;;;;;;5035647;28;20105;-77
2023/01/21 12:07:51;;;;;;;35.57;18.57;;;-0.60;99.90;;;;;;5024418;28;20029;-77
2023/01/21 12:10:22;;;;;;;31.37;17.83;;;-0.60;99.90;;;;;;5035766;28;20545;-77
2023/01/21 12:12:48;;;;;;;31.37;17.77;;;-0.60;99.90;;;;;;5036047;28;20048;-77
2023/01/21 12:15:47;;;;;;;31.27;17.67;;;-0.60;99.90;;;;;;5017774;28;20470;-77
2023/01/21 12:18:34;;;;;;;32.67;18.17;;;-0.70;99.90;;;;;;5035767;28;20030;-77
2023/01/21 12:21:14;;;;;;;33.40;16.97;;;-0.60;99.90;;;;;;5018189;28;20018;-77
2023/01/21 12:23:57;;;;;;;36.50;20.07;;;-0.70;99.90;;;;;;5035360;28;20383;-77
2023/01/21 12:26:25;;;;;;;31.97;17.97;;;-0.60;99.90;;;;;;5017452;28;20029;-77
2023/01/21 12:29:01;;;;;;;30.40;17.53;;;-0.70;99.90;;;;;;5035502;28;20022;-77
2023/01/21 12:31:36;;;;;;;32.37;16.47;;;-0.70;99.90;;;;;;5034643;28;20025;-77
2023/01/21 12:34:05;;;;;;;28.90;15.63;;;-0.70;99.90;;;;;;5015657;28;20026;-77
2023/01/21 12:36:46;;;;;;;32.43;17.27;;;-0.60;99.90;;;;;;5011446;28;20025;-77
2023/01/21 12:39:15;;;;;;;33.37;17.13;;;-0.60;99.90;;;;;;5035437;28;20045;-77
2023/01/21 12:41:43;;;;;;;32.90;16.63;;;-0.60;99.90;;;;;;5034491;28;20049;-77
2023/01/21 12:44:25;;;;;;;32.90;16.97;;;-0.60;99.90;;;;;;5034723;28;20385;-77
2023/01/21 12:46:54;;;;;;;30.27;15.57;;;-0.60;99.90;;;;;;5013369;28;20022;-77
2023/01/21 12:49:28;;;;;;;31.47;16.03;;;-0.60;99.90;;;;;;5034903;28;20363;-77